sensor_id;sensor_type;location;lat;lon;timestamp;P1;durP1;ratioP1;P2;durP2;ratioP2
8001;SDS011;4046;48.774;8.732;2023-04-08T00:00:20;1.30;;;1.20;;
8001;SDS011;4046;48.774;8.732;2023-04-08T00:02:46;1.30;;;1.20;;
8001;SDS011;4046;48.774;8.732;2023-04-08T00:05:12;1.30;;;1.20;;
8001;SDS011;4046;48.774;8.732;2023-04-08T00:07:38;1.40;;;1.30;;
8001;SDS011;4046;48.774;8.732;2023-04-08T00:10:05;1.70;;;1.60;;
8001;SDS011;4046;48.774;8.732;2023-04-08T00:12:31;1.80;;;1.70;;
8001;SDS011;4046;48.774;8.732;2023-04-08T00:14:58;1.20;;;1.07;;
8001;SDS011;4046;48.774;8.732;2023-04-08T00:17:24;1.57;;;1.47;;
8001;SDS011;4046;48.774;8.732;2023-04-08T00:19:50;1.30;;;1.17;;
8001;SDS011;4046;48.774;8.732;2023-04-08T00:22:16;1.50;;;1.40;;
8001;SDS011;4046;48.774;8.732;2023-04-08T00:24:43;1.80;;;1.37;;
8001;SDS011;4046;48.774;8.732;2023-04-08T00:27:09;1.53;;;1.43;;
8001;SDS011;4046;48.774;8.732;2023-04-08T00:29:35;1.40;;;1.30;;
8001;SDS011;4046;48.774;8.732;2023-04-08T00:32:01;1.30;;;1.20;;
8001;SDS011;4046;48.774;8.732;2023-04-08T00:34:28;1.40;;;1.30;;
8001;SDS011;4046;48.774;8.732;2023-04-08T00:36:55;1.40;;;1.30;;
8001;SDS011;4046;48.774;8.732;2023-04-08T00:39:21;1.40;;;1.30;;
8001;SDS011;4046;48.774;8.732;2023-04-08T00:41:47;1.40;;;1.30;;
8001;SDS011;4046;48.774;8.732;2023-04-08T00:44:13;1.30;;;1.17;;
8001;SDS011;4046;48.774;8.732;2023-04-08T00:46:39;1.50;;;1.40;;
8001;SDS011;4046;48.774;8.732;2023-04-08T00:49:06;1.70;;;1.60;;
8001;SDS011;4046;48.774;8.732;2023-04-08T00:51:33;1.30;;;1.20;;
8001;SDS011;4046;48.774;8.732;2023-04-08T00:54:02;1.40;;;1.30;;
8001;SDS011;4046;48.774;8.732;2023-04-08T00:56:30;1.30;;;1.20;;
8001;SDS011;4046;48.774;8.732;2023-04-08T00:59:00;1.30;;;1.20;;
8001;SDS011;4046;48.774;8.732;2023-04-08T01:09:47;1.70;;;1.60;;
8001;SDS011;4046;48.774;8.732;2023-04-08T01:12:20;1.40;;;1.20;;
8001;SDS011;4046;48.774;8.732;2023-04-08T01:14:54;1.40;;;1.23;;
8001;SDS011;4046;48.774;8.732;2023-04-08T01:17:26;1.40;;;1.30;;
8001;SDS011;4046;48.774;8.732;2023-04-08T01:19:52;1.40;;;1.30;;
8001;SDS011;4046;48.774;8.732;2023-04-08T01:25:01;1.40;;;1.30;;
8001;SDS011;4046;48.774;8.732;2023-04-08T01:27:32;1.57;;;1.47;;
8001;SDS011;4046;48.774;8.732;2023-04-08T01:30:00;1.60;;;1.50;;
8001;SDS011;4046;48.774;8.732;2023-04-08T01:32:29;1.90;;;1.60;;
8001;SDS011;4046;48.774;8.732;2023-04-08T01:34:58;1.50;;;1.30;;
8001;SDS011;4046;48.774;8.732;2023-04-08T01:37:26;1.40;;;1.30;;
8001;SDS011;4046;48.774;8.732;2023-04-08T01:39:54;1.40;;;1.30;;
8001;SDS011;4046;48.774;8.732;2023-04-08T01:42:21;1.33;;;1.23;;
8001;SDS011;4046;48.774;8.732;2023-04-08T01:44:51;1.50;;;1.40;;
8001;SDS011;4046;48.774;8.732;2023-04-08T01:47:18;1.30;;;1.20;;
8001;SDS011;4046;48.774;8.732;2023-04-08T01:49:44;1.30;;;1.10;;
8001;SDS011;4046;48.774;8.732;2023-04-08T01:52:11;1.50;;;1.40;;
8001;SDS011;4046;48.774;8.732;2023-04-08T01:54:39;1.70;;;1.60;;
8001;SDS011;4046;48.774;8.732;2023-04-08T01:57:05;1.73;;;1.50;;
8001;SDS011;4046;48.774;8.732;2023-04-08T01:59:35;1.50;;;1.40;;
8001;SDS011;4046;48.774;8.732;2023-04-08T02:02:04;1.70;;;1.60;;
8001;SDS011;4046;48.774;8.732;2023-04-08T02:04:33;1.67;;;1.57;;
8001;SDS011;4046;48.774;8.732;2023-04-08T02:07:00;1.30;;;1.10;;
8001;SDS011;4046;48.774;8.732;2023-04-08T02:09:27;1.47;;;1.30;;
8001;SDS011;4046;48.774;8.732;2023-04-08T02:11:54;1.60;;;1.50;;
8001;SDS011;4046;48.774;8.732;2023-04-08T02:14:22;1.60;;;1.50;;
8001;SDS011;4046;48.774;8.732;2023-04-08T02:19:24;1.87;;;1.77;;
8001;SDS011;4046;48.774;8.732;2023-04-08T02:22:04;1.70;;;1.60;;
8001;SDS011;4046;48.774;8.732;2023-04-08T02:24:36;1.50;;;1.40;;
8001;SDS011;4046;48.774;8.732;2023-04-08T02:27:05;1.50;;;1.40;;
8001;SDS011;4046;48.774;8.732;2023-04-08T02:29:34;1.50;;;1.20;;
8001;SDS011;4046;48.774;8.732;2023-04-08T02:32:02;1.40;;;1.30;;
8001;SDS011;4046;48.774;8.732;2023-04-08T02:34:29;1.53;;;1.43;;
8001;SDS011;4046;48.774;8.732;2023-04-08T02:36:57;1.30;;;1.20;;
8001;SDS011;4046;48.774;8.732;2023-04-08T02:39:30;1.50;;;1.40;;
8001;SDS011;4046;48.774;8.732;2023-04-08T02:41:57;1.37;;;1.27;;
8001;SDS011;4046;48.774;8.732;2023-04-08T02:44:23;1.30;;;1.20;;
8001;SDS011;4046;48.774;8.732;2023-04-08T02:46:50;1.67;;;1.57;;
8001;SDS011;4046;48.774;8.732;2023-04-08T02:49:16;1.63;;;1.40;;
8001;SDS011;4046;48.774;8.732;2023-04-08T02:51:42;1.40;;;1.30;;
8001;SDS011;4046;48.774;8.732;2023-04-08T02:54:08;1.73;;;1.20;;
8001;SDS011;4046;48.774;8.732;2023-04-08T02:56:34;1.23;;;1.10;;
8001;SDS011;4046;48.774;8.732;2023-04-08T02:59:01;1.40;;;1.30;;
8001;SDS011;4046;48.774;8.732;2023-04-08T03:01:27;1.40;;;1.30;;
8001;SDS011;4046;48.774;8.732;2023-04-08T03:03:53;1.33;;;1.23;;
8001;SDS011;4046;48.774;8.732;2023-04-08T03:06:19;1.37;;;1.27;;
8001;SDS011;4046;48.774;8.732;2023-04-08T03:08:45;1.53;;;1.43;;
8001;SDS011;4046;48.774;8.732;2023-04-08T03:11:11;1.40;;;1.30;;
8001;SDS011;4046;48.774;8.732;2023-04-08T03:13:38;1.50;;;1.40;;
8001;SDS011;4046;48.774;8.732;2023-04-08T03:16:04;1.30;;;1.20;;
8001;SDS011;4046;48.774;8.732;2023-04-08T03:18:30;1.43;;;1.33;;
8001;SDS011;4046;48.774;8.732;2023-04-08T03:20:57;1.40;;;1.30;;
8001;SDS011;4046;48.774;8.732;2023-04-08T03:23:23;1.60;;;1.50;;
8001;SDS011;4046;48.774;8.732;2023-04-08T03:25:49;1.43;;;1.33;;
8001;SDS011;4046;48.774;8.732;2023-04-08T03:28:15;1.40;;;1.30;;
8001;SDS011;4046;48.774;8.732;2023-04-08T03:30:41;1.40;;;1.30;;
8001;SDS011;4046;48.774;8.732;2023-04-08T03:33:08;1.30;;;1.13;;
8001;SDS011;4046;48.774;8.732;2023-04-08T03:35:34;1.33;;;1.20;;
8001;SDS011;4046;48.774;8.732;2023-04-08T03:38:00;1.30;;;1.20;;
8001;SDS011;4046;48.774;8.732;2023-04-08T03:40:26;1.40;;;1.20;;
8001;SDS011;4046;48.774;8.732;2023-04-08T03:42:53;1.40;;;1.30;;
8001;SDS011;4046;48.774;8.732;2023-04-08T03:45:19;1.40;;;1.30;;
8001;SDS011;4046;48.774;8.732;2023-04-08T03:47:45;1.27;;;1.10;;
8001;SDS011;4046;48.774;8.732;2023-04-08T03:50:11;1.40;;;1.30;;
8001;SDS011;4046;48.774;8.732;2023-04-08T03:52:37;1.30;;;1.20;;
8001;SDS011;4046;48.774;8.732;2023-04-08T03:55:04;1.50;;;1.40;;
8001;SDS011;4046;48.774;8.732;2023-04-08T03:57:30;1.37;;;1.27;;
8001;SDS011;4046;48.774;8.732;2023-04-08T03:59:56;1.30;;;1.20;;
8001;SDS011;4046;48.774;8.732;2023-04-08T04:02:22;1.40;;;1.20;;
8001;SDS011;4046;48.774;8.732;2023-04-08T04:04:49;1.30;;;1.20;;
8001;SDS011;4046;48.774;8.732;2023-04-08T04:07:15;1.30;;;1.20;;
8001;SDS011;4046;48.774;8.732;2023-04-08T04:09:41;1.40;;;1.30;;
8001;SDS011;4046;48.774;8.732;2023-04-08T04:12:07;1.40;;;1.30;;
8001;SDS011;4046;48.774;8.732;2023-04-08T04:14:33;1.20;;;1.00;;
8001;SDS011;4046;48.774;8.732;2023-04-08T04:17:00;1.47;;;1.37;;
8001;SDS011;4046;48.774;8.732;2023-04-08T04:19:28;1.30;;;1.10;;
8001;SDS011;4046;48.774;8.732;2023-04-08T04:21:56;1.40;;;1.30;;
8001;SDS011;4046;48.774;8.732;2023-04-08T04:24:22;1.50;;;1.27;;
8001;SDS011;4046;48.774;8.732;2023-04-08T04:26:48;1.20;;;1.00;;
8001;SDS011;4046;48.774;8.732;2023-04-08T04:29:14;1.30;;;1.20;;
8001;SDS011;4046;48.774;8.732;2023-04-08T04:31:40;1.40;;;1.30;;
8001;SDS011;4046;48.774;8.732;2023-04-08T04:34:06;1.40;;;1.30;;
8001;SDS011;4046;48.774;8.732;2023-04-08T04:36:33;1.40;;;1.20;;
8001;SDS011;4046;48.774;8.732;2023-04-08T04:38:59;1.40;;;1.30;;
8001;SDS011;4046;48.774;8.732;2023-04-08T04:41:25;1.30;;;1.10;;
8001;SDS011;4046;48.774;8.732;2023-04-08T04:43:51;1.30;;;1.10;;
8001;SDS011;4046;48.774;8.732;2023-04-08T04:46:18;1.30;;;1.13;;
8001;SDS011;4046;48.774;8.732;2023-04-08T04:48:44;1.20;;;1.10;;
8001;SDS011;4046;48.774;8.732;2023-04-08T04:51:10;1.20;;;1.10;;
8001;SDS011;4046;48.774;8.732;2023-04-08T04:53:36;1.40;;;1.00;;
8001;SDS011;4046;48.774;8.732;2023-04-08T04:56:02;1.20;;;1.00;;
8001;SDS011;4046;48.774;8.732;2023-04-08T04:58:29;1.30;;;1.20;;
8001;SDS011;4046;48.774;8.732;2023-04-08T05:00:55;1.20;;;1.00;;
8001;SDS011;4046;48.774;8.732;2023-04-08T05:03:21;1.40;;;1.30;;
8001;SDS011;4046;48.774;8.732;2023-04-08T05:05:51;1.30;;;1.10;;
8001;SDS011;4046;48.774;8.732;2023-04-08T05:08:18;1.30;;;1.07;;
8001;SDS011;4046;48.774;8.732;2023-04-08T05:10:45;1.20;;;1.10;;
8001;SDS011;4046;48.774;8.732;2023-04-08T05:13:12;1.30;;;1.17;;
8001;SDS011;4046;48.774;8.732;2023-04-08T05:15:38;1.10;;;0.90;;
8001;SDS011;4046;48.774;8.732;2023-04-08T05:18:04;1.30;;;1.10;;
8001;SDS011;4046;48.774;8.732;2023-04-08T05:20:30;1.10;;;0.90;;
8001;SDS011;4046;48.774;8.732;2023-04-08T05:22:56;1.30;;;1.00;;
8001;SDS011;4046;48.774;8.732;2023-04-08T05:25:23;1.30;;;1.00;;
8001;SDS011;4046;48.774;8.732;2023-04-08T05:27:49;1.20;;;1.00;;
8001;SDS011;4046;48.774;8.732;2023-04-08T05:30:15;1.20;;;1.00;;
8001;SDS011;4046;48.774;8.732;2023-04-08T05:32:41;1.30;;;1.20;;
8001;SDS011;4046;48.774;8.732;2023-04-08T05:35:08;1.20;;;1.00;;
8001;SDS011;4046;48.774;8.732;2023-04-08T05:37:34;1.20;;;1.00;;
8001;SDS011;4046;48.774;8.732;2023-04-08T05:40:00;1.40;;;1.30;;
8001;SDS011;4046;48.774;8.732;2023-04-08T05:42:27;1.23;;;1.10;;
8001;SDS011;4046;48.774;8.732;2023-04-08T05:44:53;1.20;;;1.00;;
8001;SDS011;4046;48.774;8.732;2023-04-08T05:47:19;1.20;;;1.00;;
8001;SDS011;4046;48.774;8.732;2023-04-08T05:49:45;1.20;;;1.00;;
8001;SDS011;4046;48.774;8.732;2023-04-08T05:52:11;1.20;;;1.00;;
8001;SDS011;4046;48.774;8.732;2023-04-08T05:54:38;1.20;;;0.97;;
8001;SDS011;4046;48.774;8.732;2023-04-08T05:57:08;1.80;;;1.17;;
8001;SDS011;4046;48.774;8.732;2023-04-08T05:59:35;1.67;;;1.30;;
8001;SDS011;4046;48.774;8.732;2023-04-08T06:02:01;1.30;;;1.00;;
8001;SDS011;4046;48.774;8.732;2023-04-08T06:04:27;1.20;;;1.10;;
8001;SDS011;4046;48.774;8.732;2023-04-08T06:06:53;1.50;;;1.40;;
8001;SDS011;4046;48.774;8.732;2023-04-08T06:09:21;1.20;;;1.10;;
8001;SDS011;4046;48.774;8.732;2023-04-08T06:11:47;1.23;;;1.10;;
8001;SDS011;4046;48.774;8.732;2023-04-08T06:14:15;1.30;;;1.20;;
8001;SDS011;4046;48.774;8.732;2023-04-08T06:16:41;1.30;;;1.10;;
8001;SDS011;4046;48.774;8.732;2023-04-08T06:19:07;1.20;;;1.00;;
8001;SDS011;4046;48.774;8.732;2023-04-08T06:21:33;1.30;;;1.20;;
8001;SDS011;4046;48.774;8.732;2023-04-08T06:24:00;1.40;;;1.30;;
8001;SDS011;4046;48.774;8.732;2023-04-08T06:26:26;1.50;;;1.10;;
8001;SDS011;4046;48.774;8.732;2023-04-08T06:28:53;1.30;;;1.10;;
8001;SDS011;4046;48.774;8.732;2023-04-08T06:31:19;1.30;;;1.07;;
8001;SDS011;4046;48.774;8.732;2023-04-08T06:33:46;1.30;;;1.13;;
8001;SDS011;4046;48.774;8.732;2023-04-08T06:36:12;1.20;;;1.10;;
8001;SDS011;4046;48.774;8.732;2023-04-08T06:38:38;1.40;;;1.20;;
8001;SDS011;4046;48.774;8.732;2023-04-08T06:41:05;1.40;;;1.20;;
8001;SDS011;4046;48.774;8.732;2023-04-08T06:43:32;1.30;;;0.90;;
8001;SDS011;4046;48.774;8.732;2023-04-08T06:45:59;1.60;;;1.17;;
8001;SDS011;4046;48.774;8.732;2023-04-08T06:48:26;1.30;;;1.07;;
8001;SDS011;4046;48.774;8.732;2023-04-08T06:50:55;1.30;;;1.10;;
8001;SDS011;4046;48.774;8.732;2023-04-08T06:53:22;1.27;;;1.00;;
8001;SDS011;4046;48.774;8.732;2023-04-08T06:55:49;1.30;;;1.13;;
8001;SDS011;4046;48.774;8.732;2023-04-08T06:58:15;1.40;;;1.20;;
8001;SDS011;4046;48.774;8.732;2023-04-08T07:00:42;1.40;;;1.20;;
8001;SDS011;4046;48.774;8.732;2023-04-08T07:03:09;1.30;;;1.10;;
8001;SDS011;4046;48.774;8.732;2023-04-08T07:05:37;1.37;;;1.20;;
8001;SDS011;4046;48.774;8.732;2023-04-08T07:08:04;1.20;;;1.10;;
8001;SDS011;4046;48.774;8.732;2023-04-08T07:10:31;1.10;;;0.80;;
8001;SDS011;4046;48.774;8.732;2023-04-08T07:12:57;1.33;;;1.10;;
8001;SDS011;4046;48.774;8.732;2023-04-08T07:15:23;1.20;;;0.90;;
8001;SDS011;4046;48.774;8.732;2023-04-08T07:17:49;1.30;;;1.00;;
8001;SDS011;4046;48.774;8.732;2023-04-08T07:20:16;1.30;;;1.20;;
8001;SDS011;4046;48.774;8.732;2023-04-08T07:22:42;1.20;;;1.00;;
8001;SDS011;4046;48.774;8.732;2023-04-08T07:25:09;1.30;;;1.10;;
8001;SDS011;4046;48.774;8.732;2023-04-08T07:27:35;1.30;;;1.10;;
8001;SDS011;4046;48.774;8.732;2023-04-08T07:30:01;1.20;;;0.90;;
8001;SDS011;4046;48.774;8.732;2023-04-08T07:32:27;1.57;;;1.00;;
8001;SDS011;4046;48.774;8.732;2023-04-08T07:34:53;1.30;;;1.10;;
8001;SDS011;4046;48.774;8.732;2023-04-08T07:37:20;1.20;;;0.93;;
8001;SDS011;4046;48.774;8.732;2023-04-08T07:39:46;1.40;;;1.13;;
8001;SDS011;4046;48.774;8.732;2023-04-08T07:42:12;1.30;;;1.00;;
8001;SDS011;4046;48.774;8.732;2023-04-08T07:44:38;1.23;;;1.13;;
8001;SDS011;4046;48.774;8.732;2023-04-08T07:47:04;1.40;;;1.17;;
8001;SDS011;4046;48.774;8.732;2023-04-08T07:49:31;1.20;;;1.00;;
8001;SDS011;4046;48.774;8.732;2023-04-08T07:51:57;1.50;;;1.10;;
8001;SDS011;4046;48.774;8.732;2023-04-08T07:54:23;1.23;;;1.07;;
8001;SDS011;4046;48.774;8.732;2023-04-08T07:56:49;1.20;;;1.00;;
8001;SDS011;4046;48.774;8.732;2023-04-08T07:59:16;1.20;;;0.93;;
8001;SDS011;4046;48.774;8.732;2023-04-08T08:01:42;2.13;;;1.10;;
8001;SDS011;4046;48.774;8.732;2023-04-08T08:04:08;1.20;;;0.90;;
8001;SDS011;4046;48.774;8.732;2023-04-08T08:06:34;1.60;;;0.90;;
8001;SDS011;4046;48.774;8.732;2023-04-08T08:09:01;1.67;;;1.13;;
8001;SDS011;4046;48.774;8.732;2023-04-08T08:11:27;1.30;;;1.10;;
8001;SDS011;4046;48.774;8.732;2023-04-08T08:13:53;1.30;;;1.00;;
8001;SDS011;4046;48.774;8.732;2023-04-08T08:16:20;1.20;;;0.90;;
8001;SDS011;4046;48.774;8.732;2023-04-08T08:18:47;1.20;;;1.00;;
8001;SDS011;4046;48.774;8.732;2023-04-08T08:21:13;1.20;;;1.10;;
8001;SDS011;4046;48.774;8.732;2023-04-08T08:23:40;1.20;;;1.10;;
8001;SDS011;4046;48.774;8.732;2023-04-08T08:26:07;1.20;;;1.00;;
8001;SDS011;4046;48.774;8.732;2023-04-08T08:28:35;1.20;;;1.10;;
8001;SDS011;4046;48.774;8.732;2023-04-08T08:31:01;1.40;;;1.10;;
8001;SDS011;4046;48.774;8.732;2023-04-08T08:33:28;1.30;;;1.00;;
8001;SDS011;4046;48.774;8.732;2023-04-08T08:35:54;1.40;;;1.30;;
8001;SDS011;4046;48.774;8.732;2023-04-08T08:38:22;1.20;;;0.90;;
8001;SDS011;4046;48.774;8.732;2023-04-08T08:40:55;1.40;;;1.00;;
8001;SDS011;4046;48.774;8.732;2023-04-08T08:43:25;1.20;;;1.00;;
8001;SDS011;4046;48.774;8.732;2023-04-08T08:45:53;1.30;;;1.10;;
8001;SDS011;4046;48.774;8.732;2023-04-08T08:48:19;1.20;;;1.10;;
8001;SDS011;4046;48.774;8.732;2023-04-08T08:50:46;1.30;;;1.10;;
8001;SDS011;4046;48.774;8.732;2023-04-08T08:53:12;1.43;;;0.90;;
8001;SDS011;4046;48.774;8.732;2023-04-08T08:55:38;1.23;;;1.10;;
8001;SDS011;4046;48.774;8.732;2023-04-08T08:58:05;1.20;;;0.90;;
8001;SDS011;4046;48.774;8.732;2023-04-08T09:00:35;1.20;;;1.00;;
8001;SDS011;4046;48.774;8.732;2023-04-08T09:03:22;1.20;;;0.90;;
8001;SDS011;4046;48.774;8.732;2023-04-08T09:05:50;1.20;;;1.00;;
8001;SDS011;4046;48.774;8.732;2023-04-08T09:08:30;1.20;;;0.90;;
8001;SDS011;4046;48.774;8.732;2023-04-08T09:13:43;1.20;;;1.00;;
8001;SDS011;4046;48.774;8.732;2023-04-08T09:16:17;1.30;;;1.00;;
8001;SDS011;4046;48.774;8.732;2023-04-08T09:18:44;1.20;;;1.00;;
8001;SDS011;4046;48.774;8.732;2023-04-08T09:21:13;1.20;;;1.00;;
8001;SDS011;4046;48.774;8.732;2023-04-08T09:23:50;1.23;;;1.10;;
8001;SDS011;4046;48.774;8.732;2023-04-08T09:26:18;1.30;;;1.10;;
8001;SDS011;4046;48.774;8.732;2023-04-08T09:29:00;1.20;;;1.00;;
8001;SDS011;4046;48.774;8.732;2023-04-08T09:31:30;1.30;;;1.10;;
8001;SDS011;4046;48.774;8.732;2023-04-08T09:33:58;1.20;;;1.07;;
8001;SDS011;4046;48.774;8.732;2023-04-08T09:36:27;1.27;;;1.10;;
8001;SDS011;4046;48.774;8.732;2023-04-08T09:38:53;1.20;;;0.90;;
8001;SDS011;4046;48.774;8.732;2023-04-08T09:41:20;1.23;;;1.10;;
8001;SDS011;4046;48.774;8.732;2023-04-08T09:43:50;1.20;;;1.00;;
8001;SDS011;4046;48.774;8.732;2023-04-08T09:46:25;1.30;;;1.13;;
8001;SDS011;4046;48.774;8.732;2023-04-08T09:49:02;1.60;;;1.50;;
8001;SDS011;4046;48.774;8.732;2023-04-08T09:51:41;3.57;;;1.70;;
8001;SDS011;4046;48.774;8.732;2023-04-08T09:54:15;2.70;;;1.80;;
8001;SDS011;4046;48.774;8.732;2023-04-08T09:57:04;7.57;;;1.93;;
8001;SDS011;4046;48.774;8.732;2023-04-08T09:59:35;2.83;;;1.83;;
8001;SDS011;4046;48.774;8.732;2023-04-08T10:02:04;3.43;;;1.67;;
8001;SDS011;4046;48.774;8.732;2023-04-08T10:04:37;2.90;;;1.70;;
8001;SDS011;4046;48.774;8.732;2023-04-08T10:07:06;2.63;;;1.83;;
8001;SDS011;4046;48.774;8.732;2023-04-08T10:09:33;2.80;;;1.87;;
8001;SDS011;4046;48.774;8.732;2023-04-08T10:12:00;3.80;;;1.87;;
8001;SDS011;4046;48.774;8.732;2023-04-08T10:14:28;1.80;;;1.70;;
8001;SDS011;4046;48.774;8.732;2023-04-08T10:19:53;1.47;;;1.37;;
8001;SDS011;4046;48.774;8.732;2023-04-08T10:27:43;2.40;;;1.90;;
8001;SDS011;4046;48.774;8.732;2023-04-08T10:32:57;1.50;;;1.30;;
8001;SDS011;4046;48.774;8.732;2023-04-08T10:35:47;2.33;;;1.50;;
8001;SDS011;4046;48.774;8.732;2023-04-08T10:38:34;1.60;;;1.40;;
8001;SDS011;4046;48.774;8.732;2023-04-08T10:41:00;1.60;;;1.50;;
8001;SDS011;4046;48.774;8.732;2023-04-08T10:43:31;1.90;;;1.80;;
8001;SDS011;4046;48.774;8.732;2023-04-08T10:46:01;2.47;;;1.70;;
8001;SDS011;4046;48.774;8.732;2023-04-08T10:48:29;1.70;;;1.60;;
8001;SDS011;4046;48.774;8.732;2023-04-08T10:50:59;1.67;;;1.47;;
8001;SDS011;4046;48.774;8.732;2023-04-08T10:53:31;1.57;;;1.47;;
8001;SDS011;4046;48.774;8.732;2023-04-08T10:56:02;5.50;;;2.00;;
8001;SDS011;4046;48.774;8.732;2023-04-08T10:58:49;1.73;;;1.63;;
8001;SDS011;4046;48.774;8.732;2023-04-08T11:01:17;3.00;;;1.70;;
8001;SDS011;4046;48.774;8.732;2023-04-08T11:03:44;2.13;;;1.87;;
8001;SDS011;4046;48.774;8.732;2023-04-08T11:06:10;2.17;;;1.93;;
8001;SDS011;4046;48.774;8.732;2023-04-08T11:08:37;2.60;;;2.40;;
8001;SDS011;4046;48.774;8.732;2023-04-08T11:11:04;2.50;;;2.30;;
8001;SDS011;4046;48.774;8.732;2023-04-08T11:13:34;2.53;;;2.00;;
8001;SDS011;4046;48.774;8.732;2023-04-08T11:16:02;3.00;;;1.90;;
8001;SDS011;4046;48.774;8.732;2023-04-08T11:18:30;2.10;;;1.73;;
8001;SDS011;4046;48.774;8.732;2023-04-08T11:20:56;1.70;;;1.60;;
8001;SDS011;4046;48.774;8.732;2023-04-08T11:23:26;4.07;;;1.70;;
8001;SDS011;4046;48.774;8.732;2023-04-08T11:25:52;1.60;;;1.50;;
8001;SDS011;4046;48.774;8.732;2023-04-08T11:28:19;2.80;;;1.90;;
8001;SDS011;4046;48.774;8.732;2023-04-08T11:30:45;1.90;;;1.80;;
8001;SDS011;4046;48.774;8.732;2023-04-08T11:33:13;3.00;;;1.77;;
8001;SDS011;4046;48.774;8.732;2023-04-08T11:35:39;2.00;;;1.90;;
8001;SDS011;4046;48.774;8.732;2023-04-08T11:38:09;1.90;;;1.80;;
8001;SDS011;4046;48.774;8.732;2023-04-08T11:40:36;2.37;;;1.90;;
8001;SDS011;4046;48.774;8.732;2023-04-08T11:43:09;1.93;;;1.83;;
8001;SDS011;4046;48.774;8.732;2023-04-08T11:45:40;2.27;;;1.70;;
8001;SDS011;4046;48.774;8.732;2023-04-08T11:48:10;1.93;;;1.73;;
8001;SDS011;4046;48.774;8.732;2023-04-08T11:50:38;1.70;;;1.60;;
8001;SDS011;4046;48.774;8.732;2023-04-08T11:53:19;1.80;;;1.70;;
8001;SDS011;4046;48.774;8.732;2023-04-08T11:55:46;1.93;;;1.83;;
8001;SDS011;4046;48.774;8.732;2023-04-08T11:58:13;1.80;;;1.70;;
8001;SDS011;4046;48.774;8.732;2023-04-08T12:00:40;1.87;;;1.67;;
8001;SDS011;4046;48.774;8.732;2023-04-08T12:03:07;2.30;;;2.10;;
8001;SDS011;4046;48.774;8.732;2023-04-08T12:05:34;1.83;;;1.73;;
8001;SDS011;4046;48.774;8.732;2023-04-08T12:08:01;1.80;;;1.70;;
8001;SDS011;4046;48.774;8.732;2023-04-08T12:10:27;1.87;;;1.77;;
8001;SDS011;4046;48.774;8.732;2023-04-08T12:12:53;1.70;;;1.60;;
8001;SDS011;4046;48.774;8.732;2023-04-08T12:15:20;1.63;;;1.53;;
8001;SDS011;4046;48.774;8.732;2023-04-08T12:17:46;1.80;;;1.70;;
8001;SDS011;4046;48.774;8.732;2023-04-08T12:20:12;1.90;;;1.80;;
8001;SDS011;4046;48.774;8.732;2023-04-08T12:22:39;1.77;;;1.67;;
8001;SDS011;4046;48.774;8.732;2023-04-08T12:25:05;1.73;;;1.63;;
8001;SDS011;4046;48.774;8.732;2023-04-08T12:27:32;1.90;;;1.80;;
8001;SDS011;4046;48.774;8.732;2023-04-08T12:29:58;1.80;;;1.70;;
8001;SDS011;4046;48.774;8.732;2023-04-08T12:32:25;2.00;;;1.80;;
8001;SDS011;4046;48.774;8.732;2023-04-08T12:34:51;1.90;;;1.80;;
8001;SDS011;4046;48.774;8.732;2023-04-08T12:37:17;1.70;;;1.60;;
8001;SDS011;4046;48.774;8.732;2023-04-08T12:39:45;1.77;;;1.67;;
8001;SDS011;4046;48.774;8.732;2023-04-08T12:42:12;1.73;;;1.63;;
8001;SDS011;4046;48.774;8.732;2023-04-08T12:44:40;1.77;;;1.67;;
8001;SDS011;4046;48.774;8.732;2023-04-08T12:47:06;1.90;;;1.80;;
8001;SDS011;4046;48.774;8.732;2023-04-08T12:49:32;1.67;;;1.57;;
8001;SDS011;4046;48.774;8.732;2023-04-08T12:51:58;1.90;;;1.80;;
8001;SDS011;4046;48.774;8.732;2023-04-08T12:54:24;1.73;;;1.63;;
8001;SDS011;4046;48.774;8.732;2023-04-08T12:56:51;1.60;;;1.50;;
8001;SDS011;4046;48.774;8.732;2023-04-08T12:59:17;1.73;;;1.53;;
8001;SDS011;4046;48.774;8.732;2023-04-08T13:01:43;1.90;;;1.80;;
8001;SDS011;4046;48.774;8.732;2023-04-08T13:04:09;1.63;;;1.53;;
8001;SDS011;4046;48.774;8.732;2023-04-08T13:06:36;2.23;;;1.53;;
8001;SDS011;4046;48.774;8.732;2023-04-08T13:09:02;2.00;;;1.80;;
8001;SDS011;4046;48.774;8.732;2023-04-08T13:11:28;4.60;;;1.90;;
8001;SDS011;4046;48.774;8.732;2023-04-08T13:13:54;1.57;;;1.47;;
8001;SDS011;4046;48.774;8.732;2023-04-08T13:16:20;1.50;;;1.40;;
8001;SDS011;4046;48.774;8.732;2023-04-08T13:18:47;1.60;;;1.50;;
8001;SDS011;4046;48.774;8.732;2023-04-08T13:21:13;1.60;;;1.50;;
8001;SDS011;4046;48.774;8.732;2023-04-08T13:23:39;2.03;;;1.93;;
8001;SDS011;4046;48.774;8.732;2023-04-08T13:26:05;2.00;;;1.90;;
8001;SDS011;4046;48.774;8.732;2023-04-08T13:28:31;1.73;;;1.63;;
8001;SDS011;4046;48.774;8.732;2023-04-08T13:30:58;1.80;;;1.70;;
8001;SDS011;4046;48.774;8.732;2023-04-08T13:33:24;2.20;;;2.00;;
8001;SDS011;4046;48.774;8.732;2023-04-08T13:35:50;1.60;;;1.50;;
8001;SDS011;4046;48.774;8.732;2023-04-08T13:38:16;1.60;;;1.50;;
8001;SDS011;4046;48.774;8.732;2023-04-08T13:40:42;1.93;;;1.83;;
8001;SDS011;4046;48.774;8.732;2023-04-08T13:43:09;1.70;;;1.50;;
8001;SDS011;4046;48.774;8.732;2023-04-08T13:45:36;1.80;;;1.70;;
8001;SDS011;4046;48.774;8.732;2023-04-08T13:48:02;2.10;;;1.80;;
8001;SDS011;4046;48.774;8.732;2023-04-08T13:50:29;1.80;;;1.70;;
8001;SDS011;4046;48.774;8.732;2023-04-08T13:52:55;1.60;;;1.50;;
8001;SDS011;4046;48.774;8.732;2023-04-08T13:55:22;1.73;;;1.63;;
8001;SDS011;4046;48.774;8.732;2023-04-08T13:57:48;1.87;;;1.77;;
8001;SDS011;4046;48.774;8.732;2023-04-08T14:00:14;2.03;;;1.90;;
8001;SDS011;4046;48.774;8.732;2023-04-08T14:02:41;1.70;;;1.60;;
8001;SDS011;4046;48.774;8.732;2023-04-08T14:05:07;2.27;;;1.83;;
8001;SDS011;4046;48.774;8.732;2023-04-08T14:07:33;1.57;;;1.47;;
8001;SDS011;4046;48.774;8.732;2023-04-08T14:09:59;1.73;;;1.63;;
8001;SDS011;4046;48.774;8.732;2023-04-08T14:12:26;1.57;;;1.47;;
8001;SDS011;4046;48.774;8.732;2023-04-08T14:14:52;1.60;;;1.50;;
8001;SDS011;4046;48.774;8.732;2023-04-08T14:17:18;1.53;;;1.43;;
8001;SDS011;4046;48.774;8.732;2023-04-08T14:19:44;1.60;;;1.50;;
8001;SDS011;4046;48.774;8.732;2023-04-08T14:22:10;1.70;;;1.60;;
8001;SDS011;4046;48.774;8.732;2023-04-08T14:24:37;1.73;;;1.63;;
8001;SDS011;4046;48.774;8.732;2023-04-08T14:27:03;1.80;;;1.70;;
8001;SDS011;4046;48.774;8.732;2023-04-08T14:29:29;1.73;;;1.63;;
8001;SDS011;4046;48.774;8.732;2023-04-08T14:31:55;1.87;;;1.77;;
8001;SDS011;4046;48.774;8.732;2023-04-08T14:34:22;1.50;;;1.40;;
8001;SDS011;4046;48.774;8.732;2023-04-08T14:36:48;1.60;;;1.50;;
8001;SDS011;4046;48.774;8.732;2023-04-08T14:39:14;1.80;;;1.70;;
8001;SDS011;4046;48.774;8.732;2023-04-08T14:41:40;1.70;;;1.60;;
8001;SDS011;4046;48.774;8.732;2023-04-08T14:44:06;1.90;;;1.80;;
8001;SDS011;4046;48.774;8.732;2023-04-08T14:46:33;1.70;;;1.60;;
8001;SDS011;4046;48.774;8.732;2023-04-08T14:48:59;1.60;;;1.50;;
8001;SDS011;4046;48.774;8.732;2023-04-08T14:51:25;1.70;;;1.60;;
8001;SDS011;4046;48.774;8.732;2023-04-08T14:53:51;1.50;;;1.40;;
8001;SDS011;4046;48.774;8.732;2023-04-08T14:56:17;1.70;;;1.60;;
8001;SDS011;4046;48.774;8.732;2023-04-08T14:58:44;1.60;;;1.50;;
8001;SDS011;4046;48.774;8.732;2023-04-08T15:01:10;1.90;;;1.80;;
8001;SDS011;4046;48.774;8.732;2023-04-08T15:03:36;1.60;;;1.50;;
8001;SDS011;4046;48.774;8.732;2023-04-08T15:06:02;1.83;;;1.60;;
8001;SDS011;4046;48.774;8.732;2023-04-08T15:08:29;1.50;;;1.40;;
8001;SDS011;4046;48.774;8.732;2023-04-08T15:10:55;1.90;;;1.70;;
8001;SDS011;4046;48.774;8.732;2023-04-08T15:13:21;2.17;;;1.97;;
8001;SDS011;4046;48.774;8.732;2023-04-08T15:15:48;1.87;;;1.30;;
8001;SDS011;4046;48.774;8.732;2023-04-08T15:18:14;1.60;;;1.50;;
8001;SDS011;4046;48.774;8.732;2023-04-08T15:20:40;1.60;;;1.50;;
8001;SDS011;4046;48.774;8.732;2023-04-08T15:23:07;1.60;;;1.50;;
8001;SDS011;4046;48.774;8.732;2023-04-08T15:25:33;1.70;;;1.60;;
8001;SDS011;4046;48.774;8.732;2023-04-08T15:27:59;1.80;;;1.70;;
8001;SDS011;4046;48.774;8.732;2023-04-08T15:30:27;1.80;;;1.70;;
8001;SDS011;4046;48.774;8.732;2023-04-08T15:33:01;1.60;;;1.50;;
8001;SDS011;4046;48.774;8.732;2023-04-08T15:35:35;1.73;;;1.63;;
8001;SDS011;4046;48.774;8.732;2023-04-08T15:38:02;1.67;;;1.57;;
8001;SDS011;4046;48.774;8.732;2023-04-08T15:40:31;1.77;;;1.60;;
8001;SDS011;4046;48.774;8.732;2023-04-08T15:42:58;1.63;;;1.53;;